IW1PPB-3 Loano IT current weather conditions

sailwx.info

Wind from 360

Air temperature 20.0° C
Dewpoint 12.2° C

Last reported at 2019-Sep-21 21:03 UTC.
Time now 2019-Sep-21 21:50 UTC

Location: N 44°08' E 008°15'.
View on Google Maps.

See reports from other nearby stations

  
Tides and Currents Weather Stations Pressure Air Temp Water Temp Dewpoint Dewpoint Depression Visibility Wind Speed Wind Dir Waves Ship Positions
date/time (UTC)wind fromknots sea level pressurealtimeterstation pressurevisibilityair tempwater tempwave heightnotes
2019-Sep-21 21:03 360 20.0
2019-Sep-21 20:53 360 2 gusting 4 20.0
2019-Sep-21 20:43 360 4 gusting 6 20.0
2019-Sep-21 20:33 360 6 gusting 6 20.0
2019-Sep-21 20:23 360 2 gusting 2 20.0
2019-Sep-21 20:13 360 4 gusting 6 20.0
2019-Sep-21 20:03 360 3 gusting 10 19.4
2019-Sep-21 19:53 360 8 gusting 9 19.4
2019-Sep-21 19:43 360 12 gusting 12 19.4
2019-Sep-21 19:33 360 11 gusting 11 19.4
2019-Sep-21 19:23 360 4 gusting 11 18.9
2019-Sep-21 19:13 360 6 gusting 8 18.3
2019-Sep-21 19:03 360 2 gusting 6 17.8
2019-Sep-21 18:53 360 6 gusting 7 18.3
2019-Sep-21 18:43 360 7 gusting 7 18.3
2019-Sep-21 18:33 360 4 gusting 8 18.3
2019-Sep-21 18:23 360 10 gusting 13 18.3
2019-Sep-21 18:13 360 8 gusting 12 18.3
2019-Sep-21 18:03 360 6 gusting 10 18.3
2019-Sep-21 17:53 360 8 gusting 12 18.9
2019-Sep-21 17:43 360 7 gusting 13 20.0
2019-Sep-21 17:33 360 7 gusting 8 21.1
2019-Sep-21 17:23 360 4 gusting 7 21.1
2019-Sep-21 17:13 360 6 gusting 6 21.7
2019-Sep-21 17:03 360 6 gusting 7 21.7
2019-Sep-21 16:53 360 2 gusting 6 21.7
2019-Sep-21 16:43 360 3 gusting 6 21.7
2019-Sep-21 16:33 360 6 gusting 8 21.7
2019-Sep-21 16:23 360 8 gusting 8 21.7
2019-Sep-21 16:13 360 1 gusting 2 21.7
2019-Sep-21 16:03 360 0 gusting 7 22.2
2019-Sep-21 15:53 360 4 gusting 4 22.2
2019-Sep-21 15:43 360 1 gusting 4 22.2
2019-Sep-21 15:33 360 22.2
2019-Sep-21 15:23 360 2 gusting 4 22.8
2019-Sep-21 15:13 360 8 gusting 11 22.2
2019-Sep-21 15:03 360 13 gusting 13 22.2
2019-Sep-21 14:53 360 4 gusting 8 22.8
2019-Sep-21 14:43 360 11 gusting 12 22.8
2019-Sep-21 14:33 360 8 gusting 17 22.8
2019-Sep-21 14:23 360 8 gusting 15 22.8
2019-Sep-21 14:13 360 6 gusting 10 22.8
2019-Sep-21 14:03 360 3 gusting 10 22.8
2019-Sep-21 13:53 360 10 gusting 16 22.8
2019-Sep-21 13:43 360 11 gusting 13 22.8
2019-Sep-21 13:33 360 23.3
2019-Sep-21 13:23 360 6 gusting 9 22.8
2019-Sep-21 13:13 360 13 gusting 13 22.8
2019-Sep-21 13:03 360 8 gusting 16 22.8
2019-Sep-21 12:53 360 7 gusting 8 23.3
2019-Sep-21 12:43 360 12 gusting 12 23.3
2019-Sep-21 12:33 360 7 gusting 9 23.3
2019-Sep-21 12:23 360 4 gusting 6 23.3
2019-Sep-21 12:13 360 4 gusting 9 23.9
2019-Sep-21 12:03 360 10 gusting 11 23.9
2019-Sep-21 11:53 360 2 gusting 7 23.9
2019-Sep-21 11:43 360 2 gusting 13 23.9
2019-Sep-21 11:33 005 6 gusting 6 24.4
2019-Sep-21 11:23 340 6 gusting 8 24.4
2019-Sep-21 11:13 287 2 gusting 2 24.4
2019-Sep-21 11:03 256 5 gusting 8 23.9
2019-Sep-21 10:53 266 1 gusting 4 23.9
2019-Sep-21 10:43 360 3 gusting 4 23.9
2019-Sep-21 10:33 360 6 gusting 9 23.3
2019-Sep-21 10:23 349 2 gusting 6 23.9
2019-Sep-21 10:13 360 1 gusting 6 23.3
2019-Sep-21 10:03 360 1 gusting 3 23.3
2019-Sep-21 09:53 360 4 gusting 9 22.8
2019-Sep-21 09:43 360 3 gusting 10 22.8
2019-Sep-21 09:33 360 3 gusting 12 22.8
2019-Sep-21 09:23 360 15 gusting 15 22.2
2019-Sep-21 09:13 360 8 gusting 19 22.2
2019-Sep-21 09:03 360 6 gusting 14 22.2
2019-Sep-21 08:53 360 17 gusting 18 22.2
2019-Sep-21 08:43 360 8 gusting 14 22.2
2019-Sep-21 08:33 360 9 gusting 15 22.2
2019-Sep-21 08:23 360 6 gusting 16 21.7
2019-Sep-21 08:13 360 10 gusting 14 21.7
2019-Sep-21 08:03 360 6 gusting 10 21.7
2019-Sep-21 07:53 360 7 gusting 12 21.7
2019-Sep-21 07:43 360 8 gusting 15 21.7
2019-Sep-21 07:33 360 2 gusting 2 21.1
2019-Sep-21 07:23 360 11 gusting 15 21.1
2019-Sep-21 07:13 360 3 gusting 9 21.1
2019-Sep-21 07:03 360 2 gusting 8 20.6
2019-Sep-21 06:53 360 3 gusting 6 20.6
2019-Sep-21 06:43 360 2 gusting 7 20.6
2019-Sep-21 06:33 360 2 gusting 9 20.0
2019-Sep-21 06:23 360 0 gusting 2 20.0
2019-Sep-21 06:13 360 3 gusting 6 20.0
2019-Sep-21 06:03 360 2 gusting 3 20.0
2019-Sep-21 05:53 360 6 gusting 7 20.0
2019-Sep-21 05:43 360 20.0
2019-Sep-21 05:33 360 3 gusting 11 20.0
2019-Sep-21 05:23 360 1 gusting 2 20.0
2019-Sep-21 05:13 360 11 gusting 12 20.0
2019-Sep-21 05:03 360 3 gusting 4 20.0
2019-Sep-21 04:53 360 4 gusting 15 20.0
2019-Sep-21 04:43 360 8 gusting 15 20.0
2019-Sep-21 04:33 360 3 gusting 10 20.0
2019-Sep-21 04:23 360 8 gusting 20 20.6
2019-Sep-21 04:13 360 12 gusting 15 20.0
2019-Sep-21 04:03 360 6 gusting 12 20.0
2019-Sep-21 03:53 360 11 gusting 14 20.0
2019-Sep-21 03:43 360 10 gusting 13 20.0
2019-Sep-21 03:33 360 3 gusting 16 20.6
2019-Sep-21 03:23 360 8 gusting 15 20.6
2019-Sep-21 03:13 360 8 gusting 18 20.6
2019-Sep-21 03:03 360 13 gusting 19 20.6
2019-Sep-21 02:53 360 13 gusting 21 20.6
2019-Sep-21 02:43 360 12 gusting 14 20.6
2019-Sep-21 02:33 360 8 gusting 14 20.6
2019-Sep-21 02:23 360 8 gusting 19 20.6
2019-Sep-21 02:13 360 10 gusting 13 20.6
2019-Sep-21 02:03 360 14 gusting 19 20.6
2019-Sep-21 01:53 360 6 gusting 11 20.6
2019-Sep-21 01:43 360 19 gusting 26 20.6
2019-Sep-21 01:33 360 14 gusting 17 20.6
2019-Sep-21 01:23 360 11 gusting 13 20.6
2019-Sep-21 01:13 360 16 gusting 18 20.6
2019-Sep-21 01:03 360 15 gusting 17 20.6
2019-Sep-21 00:53 360 14 gusting 16 20.6
2019-Sep-21 00:43 360 6 gusting 12 20.6
2019-Sep-21 00:33 360 12 gusting 17 21.1
2019-Sep-21 00:23 360 8 gusting 11 21.1
2019-Sep-21 00:13 360 3 gusting 8 20.6
2019-Sep-21 00:03 360 6 gusting 9 21.1
2019-Sep-20 23:53 360 8 gusting 12 21.1
2019-Sep-20 23:43 360 4 gusting 14 21.1
2019-Sep-20 23:33 360 12 gusting 12 21.1
2019-Sep-20 23:23 360 8 gusting 11 21.1
2019-Sep-20 23:13 360 6 gusting 7 21.7
2019-Sep-20 23:03 360 3 gusting 6 21.1
2019-Sep-20 22:53 360 2 gusting 3 21.1
2019-Sep-20 22:43 360 3 gusting 3 21.1
2019-Sep-20 22:33 360 6 gusting 8 21.1
2019-Sep-20 22:23 360 21.1
2019-Sep-20 22:13 360 4 gusting 7 21.1
2019-Sep-20 22:03 360 2 gusting 3 21.1
2019-Sep-20 21:53 360 1 gusting 4 21.1
2019-Sep-20 21:43 360 2 gusting 3 21.1
2019-Sep-20 21:33 360 1 gusting 2 21.1
2019-Sep-20 21:23 360 21.1
2019-Sep-20 21:13 360 2 gusting 3 21.1
2019-Sep-20 21:03 360 1 gusting 1 21.1
2019-Sep-20 20:53 360 21.1
2019-Sep-20 20:43 360 2 gusting 2 21.1
2019-Sep-20 20:33 360 2 gusting 2 21.7
2019-Sep-20 20:23 360 21.1
2019-Sep-20 20:13 360 21.1
2019-Sep-20 20:03 360 3 gusting 4 21.7
2019-Sep-20 19:53 360 6 gusting 8 21.7
2019-Sep-20 19:43 360 21.7
2019-Sep-20 19:33 360 21.7
2019-Sep-20 19:23 360 2 gusting 2 21.7
2019-Sep-20 19:13 360 2 gusting 3 21.7
2019-Sep-20 19:03 360 2 gusting 4 21.7
2019-Sep-20 18:53 360 21.7
2019-Sep-20 18:43 360 2 gusting 3 21.7
2019-Sep-20 18:33 360 2 gusting 7 21.7
2019-Sep-20 18:23 360 6 gusting 6 21.7
2019-Sep-20 18:13 360 7 gusting 12 21.7
2019-Sep-20 18:03 360 8 gusting 9 22.2
2019-Sep-20 17:53 360 14 gusting 14 22.2
2019-Sep-20 17:43 360 11 gusting 14 22.2
2019-Sep-20 17:33 360 9 gusting 12 22.2
2019-Sep-20 17:23 360 7 gusting 13 22.2
2019-Sep-20 17:13 360 7 gusting 13 22.8
2019-Sep-20 17:03 360 2 gusting 6 22.8
2019-Sep-20 16:53 360 9 gusting 13 22.8
2019-Sep-20 16:43 360 11 gusting 14 22.8
2019-Sep-20 16:33 360 8 gusting 9 23.3
2019-Sep-20 16:23 360 7 gusting 13 23.3
2019-Sep-20 16:13 360 7 gusting 11 23.3
2019-Sep-20 16:03 360 10 gusting 10 23.9
2019-Sep-20 15:53 360 6 gusting 14 23.9
2019-Sep-20 15:43 360 11 gusting 13 23.9
2019-Sep-20 15:33 360 8 gusting 14 23.9
2019-Sep-20 15:23 360 12 gusting 14 23.9
2019-Sep-20 15:13 360 8 gusting 9 24.4
2019-Sep-20 15:03 360 4 gusting 10 24.4
2019-Sep-20 14:53 360 4 gusting 19 24.4
2019-Sep-20 14:43 360 13 gusting 14 24.4
2019-Sep-20 14:33 360 4 gusting 12 25.0
2019-Sep-20 14:23 360 12 gusting 14 24.4
2019-Sep-20 14:13 360 6 gusting 9 24.4
2019-Sep-20 14:03 360 6 gusting 14 24.4
2019-Sep-20 13:53 360 9 gusting 19 24.4
2019-Sep-20 13:43 360 8 gusting 13 24.4
2019-Sep-20 13:33 360 17 gusting 19 24.4
2019-Sep-20 13:23 360 4 gusting 17 24.4
2019-Sep-20 13:13 360 12 gusting 17 25.0
2019-Sep-20 13:03 360 2 gusting 11 24.4
2019-Sep-20 12:53 360 15 gusting 19 24.4
2019-Sep-20 12:43 360 17 gusting 20 24.4
2019-Sep-20 12:33 360 8 gusting 14 24.4
2019-Sep-20 12:23 360 8 gusting 14 24.4
2019-Sep-20 12:13 360 7 gusting 16 24.4
2019-Sep-20 12:03 360 10 gusting 14 24.4
2019-Sep-20 11:53 360 6 gusting 15 24.4
2019-Sep-20 11:43 360 8 gusting 16 24.4
2019-Sep-20 11:33 360 14 gusting 14 23.9
2019-Sep-20 11:23 360 3 gusting 15 23.9
2019-Sep-20 11:13 360 11 gusting 14 23.9
2019-Sep-20 11:03 360 17 gusting 19 23.9
2019-Sep-20 10:53 360 9 gusting 13 23.9
2019-Sep-20 10:43 360 10 gusting 15 23.9
2019-Sep-20 10:33 360 2 gusting 9 23.9
2019-Sep-20 10:23 360 6 gusting 13 23.9
2019-Sep-20 10:13 360 8 gusting 19 23.9
2019-Sep-20 10:03 360 12 gusting 17 23.9
2019-Sep-20 09:53 360 1 gusting 7 24.4
2019-Sep-20 09:43 360 3 gusting 14 23.9
2019-Sep-20 09:33 360 15 gusting 15 23.9
2019-Sep-20 09:23 360 19 gusting 19 23.9
2019-Sep-20 09:13 360 3 gusting 19 23.3
2019-Sep-20 09:03 360 8 gusting 17 23.3
2019-Sep-20 08:53 360 7 gusting 10 23.9
2019-Sep-20 08:43 360 4 gusting 7 23.3
2019-Sep-20 08:33 360 9 gusting 20 23.3
2019-Sep-20 08:23 360 16 gusting 16 23.3
2019-Sep-20 08:13 339 6 gusting 13 23.3
2019-Sep-20 08:03 360 2 gusting 3 23.3
2019-Sep-20 07:53 360 6 gusting 14 23.3
2019-Sep-20 07:43 360 8 gusting 14 23.3
2019-Sep-20 07:33 360 7 gusting 13 23.3
2019-Sep-20 07:23 360 8 gusting 15 22.8
2019-Sep-20 07:13 360 8 gusting 10 22.8
2019-Sep-20 07:03 360 3 gusting 13 22.8
2019-Sep-20 06:53 360 10 gusting 14 22.8
2019-Sep-20 06:43 360 3 gusting 11 22.2
2019-Sep-20 06:33 360 9 gusting 11 22.2
2019-Sep-20 06:23 360 11 gusting 18 21.7
2019-Sep-20 06:13 360 1 gusting 12 21.7
2019-Sep-20 06:03 360 6 gusting 10 21.7
2019-Sep-20 05:53 360 4 gusting 12 21.7
2019-Sep-20 05:43 360 6 gusting 9 21.7
2019-Sep-20 05:33 360 3 gusting 15 21.1
2019-Sep-20 05:23 360 4 gusting 8 21.7
2019-Sep-20 05:13 360 2 gusting 3 21.1
2019-Sep-20 05:03 360 3 gusting 8 21.7
2019-Sep-20 04:53 360 4 gusting 8 21.1
2019-Sep-20 04:43 360 11 gusting 16 21.1
2019-Sep-20 04:33 360 1 gusting 2 21.1
2019-Sep-20 04:23 360 2 gusting 8 21.1
2019-Sep-20 04:13 360 8 gusting 11 21.7
2019-Sep-20 04:03 360 8 gusting 14 22.2
2019-Sep-20 03:53 360 10 gusting 13 22.2
2019-Sep-20 03:43 360 6 gusting 9 22.8
2019-Sep-20 03:33 360 8 gusting 12 22.2
2019-Sep-20 03:23 360 11 gusting 14 21.7
2019-Sep-20 03:13 360 4 gusting 14 22.2
2019-Sep-20 03:03 360 10 gusting 13 22.2
2019-Sep-20 02:53 360 4 gusting 10 22.2
2019-Sep-20 02:43 360 6 gusting 7 21.7
2019-Sep-20 02:33 360 2 gusting 6 21.7
2019-Sep-20 02:23 360 2 gusting 4 21.1
2019-Sep-20 02:13 360 21.7
2019-Sep-20 02:03 360 2 gusting 4 22.2
2019-Sep-20 01:53 360 7 gusting 7 22.2
2019-Sep-20 01:43 360 8 gusting 18 22.2
2019-Sep-20 01:33 360 8 gusting 16 22.2
2019-Sep-20 01:23 360 4 gusting 6 21.7
2019-Sep-20 01:13 360 4 gusting 6 21.7
2019-Sep-20 01:03 360 2 gusting 3 21.7
2019-Sep-20 00:53 360 3 gusting 4 21.7
2019-Sep-20 00:43 360 1 gusting 4 21.7
2019-Sep-20 00:33 360 7 gusting 10 21.7
2019-Sep-20 00:23 360 6 gusting 11 21.7
2019-Sep-20 00:13 360 2 gusting 7 21.7
2019-Sep-20 00:03 360 6 gusting 12 21.7
2019-Sep-19 23:53 360 6 gusting 6 21.7
2019-Sep-19 23:43 360 6 gusting 6 22.2
2019-Sep-19 23:33 360 6 gusting 8 22.2
2019-Sep-19 23:23 360 9 gusting 9 22.8
2019-Sep-19 23:13 360 7 gusting 8 22.2
2019-Sep-19 23:03 360 2 gusting 4 22.2
2019-Sep-19 22:53 360 2 gusting 6 22.2
2019-Sep-19 22:43 360 22.2
2019-Sep-19 22:33 360 6 gusting 6 22.2
2019-Sep-19 22:23 360 1 gusting 3 22.2
2019-Sep-19 22:13 360 4 gusting 7 22.2
2019-Sep-19 22:03 360 0 gusting 7 22.2
2019-Sep-19 21:53 360 6 gusting 6 22.2
2019-Sep-19 21:43 360 1 gusting 2 22.2
2019-Sep-19 21:33 360 3 gusting 4 22.2
2019-Sep-19 21:23 360 3 gusting 6 22.2
2019-Sep-19 21:13 360 2 gusting 4 22.2
2019-Sep-19 21:03 360 2 gusting 3 22.2